Sylvan, Pennsylvania
Current Conditions -  °F | °C
As of 10:53 AM on Sunday 23 Nov 2014 (Local Time) from KHGR Reporting Station
Clear Clear  
Wind Chill: 51°   Ceiling: Unl
Heat Index: 51°   Visibility: 10mi
Dew Point: 22°   Wind: 0mph
Humidity: 32%   Direction: NA
Pressure: 30.15"   Gusts: NA
Location:  39.8035°N, 77.9346°W
Report Text: KHGR 231553Z 00000KT 10SM CLR 11/M06 A3015 RMK AO2 SLP224 T01061056
Loading
Personal Weather Stations






























Interactive Weather Map New forecast layout! Learn more

10-Day Weather Forecast

Advertisements
Track Severe Weather on mobile